Time;durP1;ratioP1;P1;durP2;ratioP2;P2;SDS_P1;SDS_P2;PMS_P1;PMS_P2;Temp;Humidity;BMP_temperature;BMP_pressure;BME280_temperature;BME280_humidity;BME280_pressure;Samples;Min_cycle;Max_cycle;Signal;HPM_P1;HPM_P2
2023/03/24 00:00:46;;;;;;;5.13;4.57;;;8.10;86.40;;;;;;4982679;28;20191;-75
2023/03/24 00:03:12;;;;;;;4.23;3.83;;;8.00;86.40;;;;;;4983533;28;20889;-74
2023/03/24 00:05:39;;;;;;;5.27;4.03;;;8.00;86.30;;;;;;4983635;28;20186;-74
2023/03/24 00:08:05;;;;;;;7.37;4.93;;;8.00;86.40;;;;;;4982163;28;20259;-74
2023/03/24 00:10:33;;;;;;;9.07;4.47;;;8.00;86.60;;;;;;4983961;28;20182;-74
2023/03/24 00:13:00;;;;;;;6.37;4.37;;;7.90;86.70;;;;;;4983448;28;20233;-74
2023/03/24 00:15:26;;;;;;;6.83;4.60;;;7.90;86.80;;;;;;4982509;28;20197;-74
2023/03/24 00:17:54;;;;;;;9.43;4.47;;;7.90;86.80;;;;;;4982556;28;20177;-74
2023/03/24 00:20:21;;;;;;;5.87;4.27;;;7.80;86.90;;;;;;4979768;28;20187;-75
2023/03/24 00:22:50;;;;;;;6.23;4.87;;;7.80;86.70;;;;;;4978423;28;20594;-74
2023/03/24 00:25:26;;;;;;;5.97;5.03;;;7.90;86.00;;;;;;4982124;28;20264;-74
2023/03/24 00:27:53;;;;;;;6.57;4.90;;;7.90;85.80;;;;;;4982564;28;20213;-74
2023/03/24 00:30:19;;;;;;;12.30;5.47;;;7.90;86.90;;;;;;4980808;28;20689;-74
2023/03/24 00:32:46;;;;;;;9.53;5.40;;;7.80;87.10;;;;;;4982747;28;20304;-73
2023/03/24 00:35:13;;;;;;;6.20;5.00;;;7.80;87.20;;;;;;4985138;28;20186;-74
2023/03/24 00:37:40;;;;;;;8.30;5.40;;;7.80;86.80;;;;;;4981525;28;20591;-74
2023/03/24 00:40:11;;;;;;;7.10;5.17;;;7.80;87.50;;;;;;4982725;28;20201;-74
2023/03/24 00:42:38;;;;;;;5.47;4.83;;;7.80;87.90;;;;;;4982176;28;20713;-74
2023/03/24 00:45:06;;;;;;;6.80;4.80;;;7.70;88.20;;;;;;4984748;28;20679;-74
2023/03/24 00:47:36;;;;;;;5.43;4.67;;;7.60;88.30;;;;;;4984783;28;20573;-74
2023/03/24 00:50:10;;;;;;;5.43;4.33;;;7.60;88.40;;;;;;4980606;28;20212;-73
2023/03/24 00:52:36;;;;;;;6.00;4.47;;;7.50;88.20;;;;;;4982343;28;20703;-73
2023/03/24 00:55:05;;;;;;;7.60;4.43;;;7.50;88.20;;;;;;4976784;28;20181;-73
2023/03/24 00:57:35;;;;;;;6.17;4.27;;;7.40;88.50;;;;;;4978727;28;20185;-73
2023/03/24 01:00:10;;;;;;;6.70;4.67;;;7.40;88.30;;;;;;4982987;28;20178;-73
2023/03/24 01:02:36;;;;;;;5.77;4.53;;;7.40;88.10;;;;;;4978183;28;20252;-73
2023/03/24 01:05:02;;;;;;;8.47;5.20;;;7.40;88.40;;;;;;4977328;28;20171;-73
2023/03/24 01:07:29;;;;;;;9.00;5.87;;;7.40;88.20;;;;;;4981918;28;20205;-73
2023/03/24 01:09:56;;;;;;;5.03;4.53;;;7.40;88.50;;;;;;4983004;28;20579;-74
2023/03/24 01:12:36;;;;;;;5.73;5.10;;;7.40;88.20;;;;;;4978706;28;20220;-74
2023/03/24 01:15:19;;;;;;;5.27;4.17;;;7.40;88.40;;;;;;4979011;28;20237;-75
2023/03/24 01:17:47;;;;;;;4.90;4.13;;;7.40;88.80;;;;;;4982357;28;20209;-74
2023/03/24 01:20:13;;;;;;;8.60;5.53;;;7.40;89.00;;;;;;4983154;28;20173;-74
2023/03/24 01:22:43;;;;;;;5.13;4.67;;;7.30;89.40;;;;;;4981932;28;20182;-74
2023/03/24 01:25:21;;;;;;;6.77;5.07;;;7.30;89.30;;;;;;4983452;28;20206;-74
2023/03/24 01:27:48;;;;;;;7.43;5.37;;;7.30;89.30;;;;;;4983782;28;20618;-75
2023/03/24 01:30:17;;;;;;;6.37;4.77;;;7.30;89.10;;;;;;4978489;28;20177;-74
2023/03/24 01:32:43;;;;;;;7.13;5.23;;;7.30;89.60;;;;;;4980775;28;20293;-75
2023/03/24 01:35:10;;;;;;;6.23;5.27;;;7.20;89.90;;;;;;4980414;28;20193;-73
2023/03/24 01:37:36;;;;;;;11.50;5.47;;;7.20;90.10;;;;;;4975711;28;20248;-75
2023/03/24 01:40:10;;;;;;;5.63;4.43;;;7.20;90.20;;;;;;4986238;28;20629;-75
2023/03/24 01:42:38;;;;;;;9.17;5.57;;;7.10;90.20;;;;;;4981782;28;20181;-74
2023/03/24 01:45:52;;;;;;;7.70;5.20;;;7.10;90.60;;;;;;4981910;28;20186;-74
2023/03/24 01:48:20;;;;;;;6.43;5.43;;;7.10;90.70;;;;;;4967692;28;20907;-74
2023/03/24 01:50:56;;;;;;;5.13;4.70;;;7.10;90.70;;;;;;4965611;28;20182;-75
2023/03/24 01:53:24;;;;;;;5.70;4.77;;;7.10;91.10;;;;;;4966001;28;20300;-74
2023/03/24 01:55:50;;;;;;;6.23;4.37;;;7.10;91.20;;;;;;4965581;28;20190;-74
2023/03/24 01:58:17;;;;;;;4.30;3.93;;;7.00;91.30;;;;;;4965805;28;20220;-74
2023/03/24 02:00:43;;;;;;;5.83;4.20;;;7.00;91.20;;;;;;4966138;28;20274;-74
2023/03/24 02:03:17;;;;;;;4.83;4.20;;;7.00;91.20;;;;;;4965815;28;20182;-75
2023/03/24 02:05:45;;;;;;;7.20;5.10;;;7.00;91.10;;;;;;4965875;28;20260;-75
2023/03/24 02:08:25;;;;;;;7.00;4.90;;;7.00;91.10;;;;;;4964849;28;20232;-75
2023/03/24 02:10:54;;;;;;;8.80;4.40;;;7.00;91.00;;;;;;4966778;28;20186;-75
2023/03/24 02:13:21;;;;;;;4.13;3.83;;;6.90;91.10;;;;;;4950986;28;20206;-75
2023/03/24 02:16:20;;;;;;;4.63;4.23;;;6.90;91.10;;;;;;4965555;28;20182;-75
2023/03/24 02:19:11;;;;;;;5.13;4.43;;;6.90;91.00;;;;;;4966758;28;20330;-74
2023/03/24 02:22:14;;;;;;;9.70;4.50;;;6.90;91.10;;;;;;4965743;28;20197;-75
2023/03/24 02:25:18;;;;;;;7.73;4.70;;;6.90;91.00;;;;;;4943261;28;20210;-74
2023/03/24 02:28:02;;;;;;;4.73;4.20;;;6.80;91.20;;;;;;4898824;29;20200;-75
2023/03/24 02:30:49;;;;;;;6.43;4.70;;;6.80;91.30;;;;;;4898586;29;20268;-75
2023/03/24 02:33:26;;;;;;;6.67;4.87;;;6.80;91.10;;;;;;4900344;29;20217;-74
2023/03/24 02:36:06;;;;;;;5.60;4.23;;;6.80;91.20;;;;;;4899912;29;20289;-75
2023/03/24 02:38:54;;;;;;;5.97;4.53;;;6.80;91.20;;;;;;4895042;29;20232;-75
2023/03/24 02:41:43;;;;;;;5.57;4.40;;;6.80;91.50;;;;;;4896834;29;20191;-75
2023/03/24 02:44:26;;;;;;;6.50;4.10;;;6.70;91.70;;;;;;4894531;29;20201;-75
2023/03/24 02:47:20;;;;;;;5.83;4.50;;;6.70;91.60;;;;;;4895991;29;20185;-75
2023/03/24 02:49:59;;;;;;;4.23;3.50;;;6.60;91.70;;;;;;4900210;29;20291;-75
2023/03/24 02:52:58;;;;;;;4.73;3.67;;;6.70;91.30;;;;;;4895682;29;20223;-74
2023/03/24 02:55:29;;;;;;;5.13;4.27;;;6.70;91.20;;;;;;4896503;29;20696;-75
2023/03/24 02:58:01;;;;;;;6.73;4.23;;;6.70;91.50;;;;;;4900296;29;20847;-75
2023/03/24 03:00:45;;;;;;;8.63;4.30;;;6.70;91.80;;;;;;4901819;29;20220;-75
2023/03/24 03:03:26;;;;;;;6.17;4.33;;;6.60;92.40;;;;;;4919972;28;20187;-75
2023/03/24 03:05:57;;;;;;;5.90;4.47;;;6.60;92.50;;;;;;4979990;28;20181;-75
2023/03/24 03:08:27;;;;;;;5.40;4.07;;;6.60;92.60;;;;;;4979237;28;20248;-74
2023/03/24 03:10:56;;;;;;;5.90;4.40;;;6.70;92.50;;;;;;4982882;28;20175;-74
2023/03/24 03:13:36;;;;;;;4.87;4.40;;;6.70;92.40;;;;;;4976866;28;20210;-74
2023/03/24 03:16:20;;;;;;;5.93;4.83;;;6.70;92.40;;;;;;4980190;28;20178;-75
2023/03/24 03:19:09;;;;;;;6.17;4.13;;;6.70;92.40;;;;;;4982496;28;20181;-74
2023/03/24 03:21:41;;;;;;;7.20;4.00;;;6.70;92.00;;;;;;4977249;28;20183;-74
2023/03/24 03:24:16;;;;;;;4.83;4.27;;;6.80;92.20;;;;;;4980407;28;20186;-74
2023/03/24 03:26:45;;;;;;;10.97;5.47;;;6.80;91.90;;;;;;4977350;28;20189;-74
2023/03/24 03:29:17;;;;;;;5.13;4.47;;;6.80;91.80;;;;;;4984695;28;20178;-75
2023/03/24 03:31:51;;;;;;;5.10;4.37;;;6.90;91.60;;;;;;4982349;28;20307;-74
2023/03/24 03:34:37;;;;;;;7.33;4.33;;;6.90;91.40;;;;;;4986683;28;20300;-74
2023/03/24 03:37:18;;;;;;;5.90;4.37;;;6.90;91.30;;;;;;4982506;28;20177;-75
2023/03/24 03:40:00;;;;;;;5.27;4.40;;;6.90;91.20;;;;;;4976872;28;20701;-74
2023/03/24 03:42:25;;;;;;;4.67;4.00;;;6.90;91.10;;;;;;4984011;28;20185;-74
2023/03/24 03:44:52;;;;;;;5.73;4.50;;;6.90;91.30;;;;;;4984382;28;20217;-74
2023/03/24 03:47:20;;;;;;;4.60;4.07;;;6.90;91.00;;;;;;4982060;28;20190;-74
2023/03/24 03:49:46;;;;;;;6.77;4.30;;;6.90;91.00;;;;;;4983488;28;20217;-74
2023/03/24 03:52:13;;;;;;;5.23;4.03;;;6.90;91.00;;;;;;4984996;28;20248;-74
2023/03/24 03:54:40;;;;;;;4.07;3.73;;;6.80;91.10;;;;;;4985227;28;20726;-74
2023/03/24 03:57:06;;;;;;;5.93;4.13;;;6.80;91.00;;;;;;4982725;28;20268;-74
2023/03/24 03:59:35;;;;;;;5.67;4.23;;;6.80;91.00;;;;;;4979212;28;20178;-73
2023/03/24 04:02:19;;;;;;;4.87;3.63;;;6.80;91.00;;;;;;4984423;28;20182;-75
2023/03/24 04:05:00;;;;;;;7.30;5.10;;;6.80;90.90;;;;;;4987805;28;20193;-74
2023/03/24 04:07:51;;;;;;;8.47;4.27;;;6.70;91.10;;;;;;4985406;28;20241;-74
2023/03/24 04:10:35;;;;;;;4.50;4.10;;;6.70;91.10;;;;;;4984000;28;20193;-75
2023/03/24 04:13:25;;;;;;;10.67;4.67;;;6.70;91.20;;;;;;4985668;28;20209;-75
2023/03/24 04:15:56;;;;;;;4.10;3.67;;;6.70;91.50;;;;;;4980978;28;20678;-75
2023/03/24 04:18:34;;;;;;;6.93;5.10;;;6.70;91.80;;;;;;4984716;28;20178;-75
2023/03/24 04:21:32;;;;;;;4.67;4.17;;;6.60;92.00;;;;;;4989192;28;20222;-74
2023/03/24 04:24:10;;;;;;;8.47;4.40;;;6.60;92.10;;;;;;4984424;28;20169;-75
2023/03/24 04:26:59;;;;;;;5.90;3.83;;;6.50;92.20;;;;;;4987106;28;20185;-75
2023/03/24 04:29:35;;;;;;;6.60;3.93;;;6.50;92.00;;;;;;4984961;28;20569;-74
2023/03/24 04:32:19;;;;;;;7.87;4.87;;;6.50;92.10;;;;;;4981051;28;20618;-75
2023/03/24 04:34:53;;;;;;;6.63;4.63;;;6.50;92.10;;;;;;4979868;28;20264;-74
2023/03/24 04:37:26;;;;;;;6.23;4.80;;;6.50;92.30;;;;;;4975129;28;20203;-74
2023/03/24 04:39:57;;;;;;;4.37;3.97;;;6.40;92.20;;;;;;4974204;28;20190;-74
2023/03/24 04:42:31;;;;;;;8.10;4.97;;;6.40;92.30;;;;;;4987374;28;20268;-74
2023/03/24 04:44:57;;;;;;;8.50;5.07;;;6.40;92.30;;;;;;4978047;28;20197;-74
2023/03/24 04:47:27;;;;;;;11.30;4.67;;;6.40;92.40;;;;;;4985024;28;20193;-75
2023/03/24 04:50:10;;;;;;;7.40;4.60;;;6.40;92.60;;;;;;4983393;28;20190;-75
2023/03/24 04:52:37;;;;;;;5.23;4.03;;;6.40;92.40;;;;;;4976490;28;20592;-74
2023/03/24 04:55:21;;;;;;;6.93;5.10;;;6.50;92.40;;;;;;4981854;28;20182;-75
2023/03/24 04:57:47;;;;;;;4.63;3.93;;;6.50;92.40;;;;;;4984389;28;20660;-74
2023/03/24 05:00:13;;;;;;;4.60;4.13;;;6.50;92.60;;;;;;4982283;28;20241;-73
2023/03/24 05:02:39;;;;;;;8.53;5.43;;;6.50;92.50;;;;;;4981858;28;20183;-75
2023/03/24 05:05:05;;;;;;;4.83;4.43;;;6.50;92.60;;;;;;4978693;28;20188;-74
2023/03/24 05:07:31;;;;;;;5.70;4.63;;;6.50;92.60;;;;;;4982084;28;20196;-74
2023/03/24 05:09:57;;;;;;;8.57;4.93;;;6.50;92.60;;;;;;4982774;28;20185;-74
2023/03/24 05:12:23;;;;;;;11.10;4.50;;;6.60;92.60;;;;;;4984639;28;20217;-74
2023/03/24 05:14:48;;;;;;;4.90;4.10;;;6.60;92.60;;;;;;4982447;28;20618;-75
2023/03/24 05:17:14;;;;;;;5.07;4.53;;;6.60;92.60;;;;;;4984047;28;20244;-75
2023/03/24 05:19:39;;;;;;;6.53;4.60;;;6.60;92.60;;;;;;4982906;28;20671;-75
2023/03/24 05:22:06;;;;;;;6.93;4.20;;;6.60;92.60;;;;;;4981465;28;20675;-75
2023/03/24 05:24:31;;;;;;;4.97;4.57;;;6.70;92.70;;;;;;4983872;28;20182;-78
2023/03/24 05:26:57;;;;;;;8.73;5.27;;;6.70;92.80;;;;;;4989176;28;20568;-80
2023/03/24 05:29:22;;;;;;;5.57;4.43;;;6.70;92.90;;;;;;4982281;28;20699;-81
2023/03/24 05:31:48;;;;;;;10.50;5.07;;;6.70;92.90;;;;;;4993963;28;20214;-79
2023/03/24 05:34:14;;;;;;;4.80;3.83;;;6.70;92.90;;;;;;5001037;28;20185;-79
2023/03/24 05:36:39;;;;;;;6.47;4.50;;;6.70;92.80;;;;;;4994854;28;20179;-80
2023/03/24 05:39:05;;;;;;;6.57;4.70;;;6.70;92.70;;;;;;4980414;28;20186;-81
2023/03/24 05:41:31;;;;;;;6.00;4.33;;;6.80;92.80;;;;;;4979452;28;20202;-79
2023/03/24 05:43:56;;;;;;;4.40;4.10;;;6.80;92.80;;;;;;4984280;28;20198;-79
2023/03/24 05:46:22;;;;;;;4.07;3.70;;;6.80;92.70;;;;;;4982713;28;20186;-80
2023/03/24 05:48:48;;;;;;;4.93;4.13;;;6.90;92.70;;;;;;4982656;28;20192;-75
2023/03/24 05:51:13;;;;;;;7.03;4.73;;;6.90;92.60;;;;;;4981370;28;20277;-80
2023/03/24 05:53:39;;;;;;;9.67;5.60;;;7.00;92.60;;;;;;4988344;28;20209;-74
2023/03/24 05:56:10;;;;;;;6.67;4.93;;;7.00;92.50;;;;;;4981785;28;20229;-73
2023/03/24 05:58:38;;;;;;;6.13;4.40;;;7.10;92.60;;;;;;4984113;28;20322;-74
2023/03/24 06:01:10;;;;;;;7.03;4.40;;;7.10;92.50;;;;;;4982962;28;20197;-74
2023/03/24 06:03:40;;;;;;;4.83;4.43;;;7.10;92.40;;;;;;4980817;28;20192;-73
2023/03/24 06:06:07;;;;;;;5.40;4.97;;;7.20;92.50;;;;;;4975640;28;20618;-73
2023/03/24 06:08:34;;;;;;;7.03;5.43;;;7.30;92.50;;;;;;4983227;28;20551;-73
2023/03/24 06:11:03;;;;;;;9.00;5.50;;;7.40;92.50;;;;;;4977946;28;20619;-73
2023/03/24 06:13:30;;;;;;;8.40;5.20;;;7.40;92.50;;;;;;4977793;28;20218;-73
2023/03/24 06:15:57;;;;;;;5.70;5.07;;;7.50;92.50;;;;;;4979316;28;20182;-73
2023/03/24 06:18:25;;;;;;;10.60;5.40;;;7.60;92.30;;;;;;4984410;28;20184;-72
2023/03/24 06:20:55;;;;;;;8.97;5.87;;;7.70;92.10;;;;;;4979727;28;20210;-72
2023/03/24 06:23:22;;;;;;;5.40;4.43;;;7.70;91.90;;;;;;4978983;28;20177;-72
2023/03/24 06:25:49;;;;;;;9.17;5.80;;;7.80;91.70;;;;;;4981947;28;20178;-74
2023/03/24 06:28:15;;;;;;;8.00;5.27;;;7.80;91.10;;;;;;4981275;28;20683;-72
2023/03/24 06:30:43;;;;;;;6.00;5.50;;;7.90;91.10;;;;;;4980240;28;20209;-74
2023/03/24 06:33:10;;;;;;;5.93;4.87;;;8.00;91.00;;;;;;4975558;28;20216;-73
2023/03/24 06:35:36;;;;;;;17.70;6.00;;;8.10;90.70;;;;;;4981301;28;20265;-73
2023/03/24 06:38:02;;;;;;;8.70;5.77;;;8.10;90.10;;;;;;4976801;28;20276;-73
2023/03/24 06:40:27;;;;;;;8.53;5.87;;;8.20;90.20;;;;;;4978757;28;20533;-72
2023/03/24 06:42:53;;;;;;;8.27;6.00;;;8.30;89.80;;;;;;4977056;28;20257;-73
2023/03/24 06:45:19;;;;;;;7.13;5.50;;;8.30;89.60;;;;;;4978035;28;21677;-73
2023/03/24 06:47:45;;;;;;;6.13;5.50;;;8.40;89.30;;;;;;4978688;28;20189;-72
2023/03/24 06:50:11;;;;;;;10.03;6.10;;;8.50;89.00;;;;;;4982454;28;20185;-73
2023/03/24 06:52:37;;;;;;;9.73;6.43;;;8.60;89.00;;;;;;4983538;28;20206;-73
2023/03/24 06:55:03;;;;;;;9.00;6.03;;;8.60;89.00;;;;;;4978647;28;20205;-73
2023/03/24 06:57:29;;;;;;;6.60;5.27;;;8.70;88.50;;;;;;4982557;28;20178;-73
2023/03/24 06:59:55;;;;;;;9.40;5.80;;;8.80;88.00;;;;;;4982566;28;20180;-73
2023/03/24 07:02:21;;;;;;;5.80;4.97;;;8.90;88.00;;;;;;4977844;28;20241;-72
2023/03/24 07:04:47;;;;;;;8.07;5.87;;;9.00;88.00;;;;;;4979061;28;20189;-73
2023/03/24 07:07:13;;;;;;;8.87;5.57;;;9.00;87.50;;;;;;4993766;28;20189;-73
2023/03/24 07:09:39;;;;;;;8.77;5.20;;;9.10;87.10;;;;;;4976262;28;20201;-73
2023/03/24 07:12:05;;;;;;;6.73;5.03;;;9.20;87.10;;;;;;4980750;28;20211;-73
2023/03/24 07:14:31;;;;;;;9.77;6.13;;;9.20;87.10;;;;;;4993663;28;20183;-73
2023/03/24 07:16:58;;;;;;;8.60;4.77;;;9.30;86.90;;;;;;4984031;28;20193;-73
2023/03/24 07:19:24;;;;;;;12.83;4.90;;;9.40;87.10;;;;;;4977655;28;20617;-73
2023/03/24 07:21:49;;;;;;;8.47;5.10;;;9.40;86.60;;;;;;4979526;28;20209;-73
2023/03/24 07:24:18;;;;;;;8.27;5.10;;;9.50;86.10;;;;;;4982437;28;20217;-75
2023/03/24 07:26:44;;;;;;;7.67;5.70;;;9.50;85.70;;;;;;4980856;28;20183;-73
2023/03/24 07:29:10;;;;;;;5.97;5.13;;;9.60;85.90;;;;;;4982004;28;20548;-72
2023/03/24 07:31:37;;;;;;;9.57;5.47;;;9.70;86.00;;;;;;4977226;28;20194;-72
2023/03/24 07:34:06;;;;;;;8.10;5.53;;;9.80;85.20;;;;;;4976690;28;20178;-73
2023/03/24 07:36:32;;;;;;;11.00;6.07;;;9.90;85.00;;;;;;4978130;28;20181;-73
2023/03/24 07:38:57;;;;;;;7.03;6.23;;;10.00;85.30;;;;;;4974312;28;20189;-73
2023/03/24 07:41:25;;;;;;;9.57;5.67;;;10.10;85.00;;;;;;4975524;28;20182;-72
2023/03/24 07:43:51;;;;;;;6.60;5.43;;;10.20;84.70;;;;;;4975080;28;20604;-74
2023/03/24 07:46:17;;;;;;;6.60;5.10;;;10.30;84.80;;;;;;4974116;28;20204;-74
2023/03/24 07:48:42;;;;;;;8.13;4.93;;;10.40;84.50;;;;;;4976435;28;20232;-73
2023/03/24 07:51:08;;;;;;;6.47;5.33;;;10.50;84.00;;;;;;4976996;28;20247;-72
2023/03/24 07:53:34;;;;;;;8.10;5.45;;;10.60;83.90;;;;;;4979050;28;20256;-73
2023/03/24 07:56:00;;;;;;;9.20;5.63;;;10.80;84.00;;;;;;4980817;28;20188;-72
2023/03/24 07:58:25;;;;;;;7.20;5.00;;;10.90;83.30;;;;;;4975360;28;20209;-73
2023/03/24 08:00:51;;;;;;;5.22;4.75;;;11.00;82.90;;;;;;4977381;28;20185;-74
2023/03/24 08:03:16;;;;;;;10.30;5.53;;;11.20;82.70;;;;;;4979367;28;20196;-73
2023/03/24 08:05:43;;;;;;;12.32;5.22;;;11.30;82.50;;;;;;4979833;28;20621;-74
2023/03/24 08:08:09;;;;;;;8.38;5.72;;;11.50;82.30;;;;;;4977342;28;20970;-74
2023/03/24 08:10:35;;;;;;;9.60;5.68;;;11.70;80.80;;;;;;4978369;28;20185;-73
2023/03/24 08:13:01;;;;;;;6.60;5.10;;;11.80;80.80;;;;;;4984006;28;20296;-74
2023/03/24 08:15:27;;;;;;;6.53;5.25;;;12.00;80.90;;;;;;4980865;28;20209;-74
2023/03/24 08:17:55;;;;;;;7.93;5.53;;;12.20;80.10;;;;;;4980889;28;20178;-74
2023/03/24 08:20:23;;;;;;;6.22;5.57;;;12.50;78.70;;;;;;4981370;28;20239;-73
2023/03/24 08:22:53;;;;;;;8.23;6.50;;;12.70;78.20;;;;;;4981689;28;20183;-73
2023/03/24 08:25:21;;;;;;;8.10;6.10;;;13.00;77.60;;;;;;4982124;28;20633;-73
2023/03/24 08:27:47;;;;;;;7.38;5.68;;;13.50;76.00;;;;;;4985278;28;20220;-74
2023/03/24 08:30:16;;;;;;;4.47;4.13;;;14.10;74.30;;;;;;4979934;28;20190;-78
2023/03/24 08:32:44;;;;;;;7.57;4.97;;;15.10;72.10;;;;;;4979500;28;20213;-77
2023/03/24 08:35:13;;;;;;;5.40;4.72;;;15.90;70.00;;;;;;4975109;28;21462;-76
2023/03/24 08:37:42;;;;;;;8.80;5.35;;;16.60;69.00;;;;;;4966971;28;20596;-76
2023/03/24 08:40:13;;;;;;;8.20;4.60;;;17.40;66.10;;;;;;4966860;28;20206;-77
2023/03/24 08:42:39;;;;;;;6.25;5.32;;;18.50;64.50;;;;;;4975929;28;20206;-77
2023/03/24 08:45:07;;;;;;;7.63;5.90;;;19.50;63.30;;;;;;4975115;28;20757;-76
2023/03/24 08:47:33;;;;;;;6.72;5.07;;;20.30;61.00;;;;;;4979290;28;20181;-77
2023/03/24 08:49:58;;;;;;;6.05;5.45;;;21.20;60.50;;;;;;4982004;28;20268;-76
2023/03/24 08:52:24;;;;;;;6.68;5.82;;;22.30;58.80;;;;;;4983551;28;20214;-76
2023/03/24 08:54:50;;;;;;;6.78;5.90;;;23.20;57.70;;;;;;4982516;28;20194;-77
2023/03/24 08:57:16;;;;;;;7.93;6.45;;;24.10;56.00;;;;;;4982184;28;20553;-77
2023/03/24 08:59:42;;;;;;;7.75;6.63;;;24.80;54.80;;;;;;4980697;28;20635;-78
2023/03/24 09:02:11;;;;;;;8.05;6.35;;;25.70;53.80;;;;;;4982658;28;20193;-78
2023/03/24 09:04:37;;;;;;;6.90;6.25;;;26.30;53.70;;;;;;4982080;28;20660;-78
2023/03/24 09:07:03;;;;;;;6.90;6.20;;;27.00;53.20;;;;;;4983420;28;20243;-78
2023/03/24 09:09:29;;;;;;;7.05;6.40;;;27.30;51.60;;;;;;4986576;28;20198;-79
2023/03/24 09:11:55;;;;;;;10.20;6.75;;;27.50;50.50;;;;;;4980095;28;20210;-78
2023/03/24 09:14:21;;;;;;;7.03;6.43;;;27.90;51.40;;;;;;4980589;28;20185;-78
2023/03/24 09:16:49;;;;;;;8.07;6.28;;;28.40;50.30;;;;;;4981457;28;20675;-79
2023/03/24 09:19:15;;;;;;;7.47;6.78;;;28.90;50.10;;;;;;4982153;28;20729;-78
2023/03/24 09:21:43;;;;;;;11.75;7.07;;;29.30;51.40;;;;;;4979843;28;20580;-78
2023/03/24 09:24:09;;;;;;;7.35;6.68;;;29.50;49.60;;;;;;4983507;28;20178;-78
2023/03/24 09:26:34;;;;;;;6.78;6.18;;;29.40;50.00;;;;;;4980203;28;20186;-78
2023/03/24 09:29:00;;;;;;;9.52;5.22;;;29.40;49.00;;;;;;4981033;28;20217;-78
2023/03/24 09:31:26;;;;;;;6.72;6.07;;;29.80;50.20;;;;;;4981550;28;20189;-77
2023/03/24 09:33:51;;;;;;;7.68;6.10;;;30.30;45.50;;;;;;4980057;28;20659;-77
2023/03/24 09:36:17;;;;;;;6.65;6.15;;;30.70;48.40;;;;;;4981770;28;20193;-78
2023/03/24 09:38:43;;;;;;;9.27;6.13;;;31.20;47.90;;;;;;4982819;28;20676;-78
2023/03/24 09:41:18;;;;;;;7.35;6.32;;;31.50;46.00;;;;;;4979305;28;20182;-78
2023/03/24 09:44:11;;;;;;;6.53;5.93;;;31.50;45.50;;;;;;4983107;28;20608;-78
2023/03/24 09:46:51;;;;;;;7.00;6.35;;;31.60;44.70;;;;;;4981791;28;20189;-78
2023/03/24 09:49:24;;;;;;;7.68;7.07;;;32.00;47.20;;;;;;4979347;28;20190;-78
2023/03/24 09:52:11;;;;;;;7.55;6.82;;;32.60;48.00;;;;;;4984752;28;20268;-78
2023/03/24 09:54:57;;;;;;;7.18;6.47;;;33.10;47.30;;;;;;4980457;28;20645;-78
2023/03/24 09:57:28;;;;;;;6.78;6.18;;;33.10;47.10;;;;;;4980376;28;20579;-78
2023/03/24 09:59:54;;;;;;;7.43;6.60;;;33.40;46.50;;;;;;4981965;28;20178;-77
2023/03/24 10:02:21;;;;;;;6.75;6.22;;;33.80;46.30;;;;;;4982438;28;20190;-78
2023/03/24 10:04:48;;;;;;;6.15;5.63;;;33.90;44.80;;;;;;4981915;28;20627;-78
2023/03/24 10:07:31;;;;;;;7.72;6.78;;;33.80;45.10;;;;;;4978144;28;20192;-78
2023/03/24 10:09:58;;;;;;;7.00;6.38;;;33.50;45.10;;;;;;4982848;28;20181;-78
2023/03/24 10:12:44;;;;;;;8.07;6.82;;;33.50;47.10;;;;;;4981435;28;20201;-78
2023/03/24 10:15:30;;;;;;;7.63;6.40;;;33.80;47.40;;;;;;4979037;28;20173;-77
2023/03/24 10:18:19;;;;;;;9.57;8.27;;;34.10;46.10;;;;;;4984879;28;20431;-77
2023/03/24 10:20:55;;;;;;;8.32;6.35;;;34.70;46.20;;;;;;4983609;28;20436;-79
2023/03/24 10:24:12;;;;;;;6.90;6.25;;;35.30;45.10;;;;;;4980415;28;20199;-79
2023/03/24 10:26:56;;;;;;;7.25;6.13;;;35.80;42.20;;;;;;4952488;28;20703;-75
2023/03/24 10:29:41;;;;;;;7.20;6.57;;;36.30;43.20;;;;;;4951410;28;20198;-75
2023/03/24 10:32:20;;;;;;;7.65;6.32;;;36.80;41.40;;;;;;4949786;28;20205;-77
2023/03/24 10:34:53;;;;;;;6.78;6.18;;;37.00;41.10;;;;;;4951482;28;20195;-77
2023/03/24 10:37:19;;;;;;;6.70;6.20;;;37.20;45.80;;;;;;4951053;28;20673;-77
2023/03/24 10:39:45;;;;;;;6.53;6.03;;;37.60;44.00;;;;;;4948858;28;20197;-78
2023/03/24 10:42:20;;;;;;;6.60;5.40;;;37.90;44.60;;;;;;4949593;28;20715;-78
2023/03/24 10:44:48;;;;;;;5.40;4.97;;;38.20;43.10;;;;;;4950500;28;20194;-75
2023/03/24 10:47:18;;;;;;;7.35;6.10;;;38.40;44.60;;;;;;4948691;28;21649;-75
2023/03/24 10:50:01;;;;;;;9.15;5.70;;;38.30;43.50;;;;;;4955382;28;20222;-76
2023/03/24 10:52:28;;;;;;;6.03;5.65;;;38.10;38.00;;;;;;4954413;28;20217;-74
2023/03/24 10:55:05;;;;;;;6.63;5.25;;;38.00;41.20;;;;;;4951142;28;20183;-74
2023/03/24 10:57:32;;;;;;;6.28;5.78;;;37.90;44.20;;;;;;4952582;28;20190;-73
2023/03/24 11:00:14;;;;;;;6.35;5.75;;;37.70;44.90;;;;;;4949550;28;20190;-75
2023/03/24 11:02:41;;;;;;;5.18;4.90;;;37.50;42.60;;;;;;4970145;28;20603;-74
2023/03/24 11:05:17;;;;;;;5.82;5.30;;;37.00;40.90;;;;;;4982353;28;20599;-76
2023/03/24 11:07:46;;;;;;;5.43;4.93;;;36.70;42.90;;;;;;4979361;28;20600;-77
2023/03/24 11:10:19;;;;;;;5.90;5.50;;;36.70;42.30;;;;;;4978448;28;20185;-82
2023/03/24 11:12:53;;;;;;;5.10;4.78;;;36.50;43.00;;;;;;4980196;28;20253;-81
2023/03/24 11:15:23;;;;;;;4.97;4.55;;;36.40;41.50;;;;;;4978534;28;20185;-79
2023/03/24 11:17:56;;;;;;;7.15;5.43;;;36.50;43.40;;;;;;4978292;28;20192;-75
2023/03/24 11:20:36;;;;;;;4.90;4.60;;;36.70;42.00;;;;;;4976433;28;20234;-75
2023/03/24 11:23:13;;;;;;;4.40;4.18;;;36.40;42.60;;;;;;4981230;28;20235;-81
2023/03/24 11:25:41;;;;;;;7.43;4.18;;;36.30;39.50;;;;;;4981431;28;20186;-76
2023/03/24 11:28:13;;;;;;;4.03;3.67;;;36.30;41.60;;;;;;4977798;28;20260;-77
2023/03/24 11:30:48;;;;;;;4.43;3.97;;;36.50;42.60;;;;;;4978536;28;20244;-76
2023/03/24 11:33:33;;;;;;;3.70;3.50;;;36.80;41.40;;;;;;4980421;28;20205;-76
2023/03/24 11:36:20;;;;;;;6.07;3.50;;;37.00;37.80;;;;;;4980318;28;20197;-78
2023/03/24 11:38:58;;;;;;;3.38;3.10;;;36.80;40.10;;;;;;4978416;28;20185;-77
2023/03/24 11:41:24;;;;;;;2.50;2.50;;;36.30;37.20;;;;;;4980082;28;20185;-76
2023/03/24 11:43:50;;;;;;;5.00;1.90;;;36.30;42.60;;;;;;4978937;28;20799;-77
2023/03/24 11:46:19;;;;;;;2.13;2.03;;;36.60;41.50;;;;;;4979255;28;20273;-76
2023/03/24 11:48:56;;;;;;;2.13;2.03;;;36.90;42.10;;;;;;4981019;28;20178;-77
2023/03/24 11:51:31;;;;;;;2.22;2.13;;;37.20;40.40;;;;;;4983461;28;20185;-77
2023/03/24 11:53:58;;;;;;;2.53;2.38;;;37.50;40.20;;;;;;4984726;28;20181;-77
2023/03/24 11:57:06;;;;;;;2.22;2.17;;;37.80;41.30;;;;;;4984694;28;20182;-76
2023/03/24 11:59:50;;;;;;;1.98;1.98;;;37.90;38.60;;;;;;4929824;29;20197;-77
2023/03/24 12:02:40;;;;;;;1.83;1.73;;;37.80;35.70;;;;;;4927685;29;20692;-76
2023/03/24 12:05:09;;;;;;;2.33;2.22;;;37.60;40.80;;;;;;4928451;29;20194;-77
2023/03/24 12:07:58;;;;;;;2.10;2.00;;;37.70;38.10;;;;;;4926567;29;20294;-77
2023/03/24 12:11:02;;;;;;;1.85;1.85;;;37.80;35.60;;;;;;4891364;29;20271;-77
2023/03/24 12:13:33;;;;;;;1.92;1.92;;;38.00;35.80;;;;;;4892807;29;20252;-77
2023/03/24 12:16:08;;;;;;;2.10;2.10;;;38.20;40.40;;;;;;4893850;29;20248;-76
2023/03/24 12:19:10;;;;;;;2.15;2.08;;;37.90;37.80;;;;;;4890310;29;20191;-77
2023/03/24 12:21:46;;;;;;;2.10;2.00;;;37.40;35.50;;;;;;4891685;29;20594;-76
2023/03/24 12:24:26;;;;;;;2.60;2.47;;;36.80;38.30;;;;;;4891717;29;20195;-76
2023/03/24 12:26:57;;;;;;;2.55;2.45;;;36.10;40.20;;;;;;4890366;29;20588;-76
2023/03/24 12:29:47;;;;;;;2.17;2.10;;;35.60;41.20;;;;;;4891562;29;20196;-76
2023/03/24 12:32:43;;;;;;;2.08;1.95;;;35.20;39.30;;;;;;4890631;29;20199;-76
2023/03/24 12:35:53;;;;;;;2.28;2.15;;;35.20;38.00;;;;;;4906601;29;20196;-76
2023/03/24 12:38:30;;;;;;;2.20;2.05;;;35.50;37.50;;;;;;4908385;29;20196;-76
2023/03/24 12:41:06;;;;;;;2.53;2.05;;;35.80;41.40;;;;;;4908314;29;20296;-76
2023/03/24 12:43:46;;;;;;;1.65;1.65;;;36.20;39.90;;;;;;4907412;29;21501;-76
2023/03/24 12:46:34;;;;;;;1.88;1.77;;;36.40;37.50;;;;;;4908995;29;20585;-76
2023/03/24 12:49:19;;;;;;;3.47;1.80;;;36.80;36.70;;;;;;4986106;28;20272;-76
2023/03/24 12:52:15;;;;;;;2.05;1.85;;;36.80;36.30;;;;;;4985346;28;20216;-76
2023/03/24 12:54:54;;;;;;;1.45;1.45;;;36.90;36.60;;;;;;4980048;28;20185;-78
2023/03/24 12:57:26;;;;;;;1.45;1.45;;;37.20;36.20;;;;;;4982817;28;20196;-78
2023/03/24 13:00:04;;;;;;;1.42;1.42;;;37.60;38.50;;;;;;4979944;28;20181;-76
2023/03/24 13:02:38;;;;;;;1.95;1.85;;;37.80;38.40;;;;;;4995002;28;20592;-76
2023/03/24 13:05:07;;;;;;;1.17;1.17;;;37.90;38.50;;;;;;4985691;28;20276;-77
2023/03/24 13:07:38;;;;;;;1.67;1.27;;;38.00;36.70;;;;;;4980525;28;20568;-76
2023/03/24 13:10:19;;;;;;;1.40;1.30;;;38.00;37.00;;;;;;4985377;28;20212;-76
2023/03/24 13:13:12;;;;;;;1.45;1.35;;;37.80;34.70;;;;;;4979357;28;20971;-76
2023/03/24 13:15:49;;;;;;;1.13;1.13;;;37.10;34.20;;;;;;4977952;28;20181;-76
2023/03/24 13:18:46;;;;;;;1.30;1.30;;;36.30;35.90;;;;;;4985485;28;20247;-76
2023/03/24 13:21:15;;;;;;;1.02;1.02;;;35.50;34.70;;;;;;4955140;28;20199;-76